Time;durP1;ratioP1;P1;durP2;ratioP2;P2;SDS_P1;SDS_P2;PMS_P1;PMS_P2;Temp;Humidity;BMP_temperature;BMP_pressure;BME280_temperature;BME280_humidity;BME280_pressure;Samples;Min_cycle;Max_cycle;Signal;HPM_P1;HPM_P2
2022/09/28 00:01:55;;;;;;;29.15;10.23;;;;;;;;;;4964440;28;20066;-73
2022/09/28 00:04:21;;;;;;;20.98;8.30;;;;;;;;;;4962017;28;20122;-73
2022/09/28 00:06:47;;;;;;;17.50;8.18;;;;;;;;;;4966365;28;20039;-75
2022/09/28 00:09:16;;;;;;;22.73;8.45;;;;;;;;;;4966876;28;20499;-73
2022/09/28 00:11:42;;;;;;;16.05;7.13;;;;;;;;;;4966732;28;20550;-73
2022/09/28 00:14:10;;;;;;;16.73;7.07;;;;;;;;;;4967866;28;20027;-73
2022/09/28 00:16:38;;;;;;;16.13;6.68;;;;;;;;;;4967832;28;20050;-73
2022/09/28 00:19:05;;;;;;;24.38;6.70;;;;;;;;;;4977740;28;20035;-73
2022/09/28 00:21:32;;;;;;;18.08;6.53;;;;;;;;;;4966175;28;20027;-72
2022/09/28 00:24:11;;;;;;;12.77;6.57;;;;;;;;;;4971774;28;20058;-73
2022/09/28 00:27:00;;;;;;;18.42;6.35;;;;;;;;;;4965941;28;20083;-73
2022/09/28 00:29:26;;;;;;;14.65;6.32;;;;;;;;;;4966287;28;20035;-73
2022/09/28 00:31:58;;;;;;;22.15;7.32;;;;;;;;;;4968255;28;20432;-73
2022/09/28 00:34:25;;;;;;;16.95;6.05;;;;;;;;;;4965901;28;20316;-73
2022/09/28 00:36:51;;;;;;;16.40;5.70;;;;;;;;;;4964164;28;20023;-74
2022/09/28 00:39:17;;;;;;;19.10;5.85;;;;;;;;;;4967629;28;20039;-73
2022/09/28 00:41:44;;;;;;;15.05;5.25;;;;;;;;;;4963299;28;20027;-73
2022/09/28 00:44:31;;;;;;;13.32;5.30;;;;;;;;;;4968708;28;20038;-73
2022/09/28 00:47:01;;;;;;;11.90;5.72;;;;;;;;;;4975819;28;20395;-73
2022/09/28 00:49:47;;;;;;;10.35;4.75;;;;;;;;;;4966151;28;20460;-74
2022/09/28 00:52:22;;;;;;;15.10;5.50;;;;;;;;;;4963734;28;20043;-73
2022/09/28 00:54:49;;;;;;;12.15;5.43;;;;;;;;;;4963735;28;20034;-73
2022/09/28 00:57:16;;;;;;;15.13;4.93;;;;;;;;;;4967516;28;20038;-73
2022/09/28 00:59:42;;;;;;;12.88;4.95;;;;;;;;;;4966880;28;20129;-73
2022/09/28 01:02:09;;;;;;;14.55;5.07;;;;;;;;;;4964399;28;20045;-73
2022/09/28 01:04:36;;;;;;;15.88;5.68;;;;;;;;;;4965315;28;20053;-73
2022/09/28 01:07:02;;;;;;;11.38;4.68;;;;;;;;;;4966537;28;20026;-73
2022/09/28 01:09:28;;;;;;;19.38;5.20;;;;;;;;;;4962479;28;20041;-73
2022/09/28 01:11:54;;;;;;;10.15;4.28;;;;;;;;;;4960471;28;20113;-73
2022/09/28 01:14:24;;;;;;;13.40;4.95;;;;;;;;;;4967442;28;20042;-73
2022/09/28 01:17:08;;;;;;;11.82;4.70;;;;;;;;;;4968100;28;20043;-73
2022/09/28 01:19:54;;;;;;;10.70;4.18;;;;;;;;;;4981130;28;20082;-73
2022/09/28 01:22:26;;;;;;;13.80;3.95;;;;;;;;;;4962065;28;20058;-73
2022/09/28 01:25:06;;;;;;;13.80;4.82;;;;;;;;;;4970141;28;20485;-73
2022/09/28 01:27:37;;;;;;;8.67;3.77;;;;;;;;;;4964511;28;20023;-73
2022/09/28 01:30:08;;;;;;;11.68;5.70;;;;;;;;;;4966637;28;20566;-73
2022/09/28 01:32:54;;;;;;;19.60;4.88;;;;;;;;;;4962296;28;20077;-74
2022/09/28 01:35:30;;;;;;;13.85;4.80;;;;;;;;;;4964689;28;20149;-73
2022/09/28 01:38:00;;;;;;;12.77;4.47;;;;;;;;;;4968105;28;20027;-73
2022/09/28 01:40:26;;;;;;;14.00;4.65;;;;;;;;;;4967144;28;20110;-73
2022/09/28 01:42:55;;;;;;;10.88;3.80;;;;;;;;;;4965867;28;20047;-73
2022/09/28 01:45:44;;;;;;;11.95;4.30;;;;;;;;;;4978377;28;20130;-73
2022/09/28 01:48:12;;;;;;;10.75;3.63;;;;;;;;;;4971558;28;20496;-74
2022/09/28 01:50:39;;;;;;;9.68;3.63;;;;;;;;;;4963663;28;20047;-73
2022/09/28 01:53:08;;;;;;;9.00;3.20;;;;;;;;;;4966320;28;20550;-74
2022/09/28 01:55:38;;;;;;;9.73;3.10;;;;;;;;;;4966132;28;20105;-73
2022/09/28 01:58:07;;;;;;;6.68;2.95;;;;;;;;;;4965070;28;20031;-73
2022/09/28 02:00:35;;;;;;;7.70;2.70;;;;;;;;;;4965389;28;20534;-73
2022/09/28 02:03:07;;;;;;;6.32;2.45;;;;;;;;;;4963438;28;20049;-73
2022/09/28 02:05:35;;;;;;;6.90;2.28;;;;;;;;;;4962053;28;20026;-73
2022/09/28 02:08:21;;;;;;;5.68;2.10;;;;;;;;;;4963528;28;20039;-73
2022/09/28 02:10:51;;;;;;;5.10;2.08;;;;;;;;;;4965866;28;20031;-73
2022/09/28 02:13:20;;;;;;;5.10;2.38;;;;;;;;;;4965195;28;20062;-73
2022/09/28 02:15:50;;;;;;;6.63;2.15;;;;;;;;;;4981784;28;20113;-73
2022/09/28 02:18:16;;;;;;;4.23;2.30;;;;;;;;;;4965191;28;20055;-73
2022/09/28 02:20:46;;;;;;;9.68;2.45;;;;;;;;;;4965389;28;20336;-73
2022/09/28 02:23:12;;;;;;;4.27;2.30;;;;;;;;;;4964245;28;20030;-73
2022/09/28 02:25:48;;;;;;;5.13;2.13;;;;;;;;;;4965262;28;20311;-73
2022/09/28 02:28:14;;;;;;;10.27;2.38;;;;;;;;;;4981056;28;20460;-73
2022/09/28 02:30:42;;;;;;;6.60;2.25;;;;;;;;;;4966764;28;20097;-73
2022/09/28 02:33:08;;;;;;;6.00;2.15;;;;;;;;;;4964596;28;20313;-73
2022/09/28 02:35:34;;;;;;;5.57;2.08;;;;;;;;;;4965442;28;20094;-73
2022/09/28 02:38:00;;;;;;;5.55;1.70;;;;;;;;;;4963989;28;20023;-73
2022/09/28 02:40:31;;;;;;;4.07;1.50;;;;;;;;;;4982373;28;20451;-73
2022/09/28 02:43:18;;;;;;;2.70;1.40;;;;;;;;;;4963835;28;20456;-73
2022/09/28 02:45:51;;;;;;;5.97;1.45;;;;;;;;;;4964722;28;20023;-73
2022/09/28 02:48:36;;;;;;;3.50;1.33;;;;;;;;;;4964318;28;20035;-73
2022/09/28 02:51:17;;;;;;;4.55;1.60;;;;;;;;;;4965864;28;20121;-73
2022/09/28 02:53:58;;;;;;;6.07;1.20;;;;;;;;;;4977191;28;20042;-73
2022/09/28 02:56:24;;;;;;;;;;;;;;;;;;4966063;28;20031;-73
2022/09/28 02:59:02;;;;;;;5.93;1.27;;;;;;;;;;4969379;28;20241;-73
2022/09/28 03:01:44;;;;;;;10.80;1.55;;;;;;;;;;4982946;28;20581;-73
2022/09/28 03:04:18;;;;;;;6.82;1.40;;;;;;;;;;4969500;28;20131;-73
2022/09/28 03:06:53;;;;;;;5.20;1.30;;;;;;;;;;4963472;28;20041;-73
2022/09/28 03:09:22;;;;;;;8.00;1.48;;;;;;;;;;4965836;28;20484;-73
2022/09/28 03:12:08;;;;;;;2.50;1.17;;;;;;;;;;4966331;28;20668;-73
2022/09/28 03:14:34;;;;;;;5.38;1.55;;;;;;;;;;4966394;28;20035;-73
2022/09/28 03:17:00;;;;;;;9.77;1.60;;;;;;;;;;4967210;28;20035;-73
2022/09/28 03:19:31;;;;;;;5.13;1.80;;;;;;;;;;4968523;28;20121;-73
2022/09/28 03:21:58;;;;;;;4.68;1.58;;;;;;;;;;4968218;28;20053;-73
2022/09/28 03:24:24;;;;;;;3.88;1.73;;;;;;;;;;4969199;28;20027;-73
2022/09/28 03:26:50;;;;;;;3.90;1.50;;;;;;;;;;4968007;28;20058;-73
2022/09/28 03:29:16;;;;;;;7.03;1.88;;;;;;;;;;4976995;28;20042;-73
2022/09/28 03:31:43;;;;;;;4.38;1.75;;;;;;;;;;4964654;28;20047;-73
2022/09/28 03:34:09;;;;;;;4.72;1.60;;;;;;;;;;4967667;28;20031;-73
2022/09/28 03:36:35;;;;;;;4.43;1.90;;;;;;;;;;4967270;28;20093;-73
2022/09/28 03:39:01;;;;;;;3.38;1.80;;;;;;;;;;4964993;28;20508;-73
2022/09/28 03:41:27;;;;;;;6.70;1.67;;;;;;;;;;4968313;28;20292;-73
2022/09/28 03:43:54;;;;;;;5.22;1.67;;;;;;;;;;4968240;28;20101;-73
2022/09/28 03:46:20;;;;;;;4.47;1.60;;;;;;;;;;4974883;28;20137;-72
2022/09/28 03:48:46;;;;;;;3.22;1.58;;;;;;;;;;4968004;28;20050;-74
2022/09/28 03:51:12;;;;;;;6.80;1.67;;;;;;;;;;4976554;28;20137;-73
2022/09/28 03:53:38;;;;;;;3.25;1.55;;;;;;;;;;4967497;28;20039;-73
2022/09/28 03:56:10;;;;;;;3.65;1.73;;;;;;;;;;4964959;28;20054;-74
2022/09/28 03:58:37;;;;;;;4.90;1.60;;;;;;;;;;4970005;28;20122;-74
2022/09/28 04:01:16;;;;;;;2.55;1.73;;;;;;;;;;4968297;28;20019;-74
2022/09/28 04:03:42;;;;;;;5.93;1.80;;;;;;;;;;4965287;28;20041;-73
2022/09/28 04:06:09;;;;;;;7.57;1.67;;;;;;;;;;4967917;28;20033;-75
2022/09/28 04:08:35;;;;;;;6.38;1.83;;;;;;;;;;4967883;28;20050;-74
2022/09/28 04:11:01;;;;;;;7.13;1.80;;;;;;;;;;4976503;28;20102;-73
2022/09/28 04:13:28;;;;;;;3.90;1.80;;;;;;;;;;4997963;28;20046;-73
2022/09/28 04:15:55;;;;;;;2.97;1.80;;;;;;;;;;4967863;28;20023;-73
2022/09/28 04:18:21;;;;;;;7.30;2.20;;;;;;;;;;4964779;28;20077;-73
2022/09/28 04:20:47;;;;;;;5.20;2.10;;;;;;;;;;4964360;28;20065;-72
2022/09/28 04:23:16;;;;;;;6.15;3.08;;;;;;;;;;4968537;28;20061;-73
2022/09/28 04:25:46;;;;;;;9.48;2.35;;;;;;;;;;4966539;28;20089;-73
2022/09/28 04:30:57;;;;;;;9.45;2.63;;;;;;;;;;4965055;28;20217;-73
2022/09/28 04:33:23;;;;;;;7.05;2.70;;;;;;;;;;4967183;28;20034;-73
2022/09/28 04:35:49;;;;;;;10.05;3.15;;;;;;;;;;4967688;28;20412;-73
2022/09/28 04:38:15;;;;;;;8.75;2.78;;;;;;;;;;4965119;28;20022;-72
2022/09/28 04:40:41;;;;;;;7.60;2.70;;;;;;;;;;4966292;28;20497;-74
2022/09/28 04:43:10;;;;;;;5.10;2.35;;;;;;;;;;4967586;28;20035;-73
2022/09/28 04:45:36;;;;;;;6.75;2.70;;;;;;;;;;4966695;28;20043;-74
2022/09/28 04:48:05;;;;;;;4.63;2.17;;;;;;;;;;4968881;28;20037;-74
2022/09/28 04:50:31;;;;;;;5.82;2.58;;;;;;;;;;4965272;28;20105;-74
2022/09/28 04:52:57;;;;;;;5.75;2.50;;;;;;;;;;4963813;28;20031;-73
2022/09/28 04:55:23;;;;;;;5.22;2.72;;;;;;;;;;4968256;28;20456;-73
2022/09/28 04:57:49;;;;;;;8.82;2.55;;;;;;;;;;4963032;28;20031;-73
2022/09/28 05:00:16;;;;;;;2.97;1.80;;;;;;;;;;4962873;28;20496;-73
2022/09/28 05:02:42;;;;;;;6.35;2.42;;;;;;;;;;4959099;28;20057;-73
2022/09/28 05:05:08;;;;;;;5.70;2.30;;;;;;;;;;4966139;28;20431;-73
2022/09/28 05:07:34;;;;;;;4.60;2.42;;;;;;;;;;4967348;28;20527;-73
2022/09/28 05:10:00;;;;;;;4.07;1.98;;;;;;;;;;4963305;28;20027;-73
2022/09/28 05:12:26;;;;;;;3.95;2.13;;;;;;;;;;4962589;28;20037;-73
2022/09/28 05:14:52;;;;;;;4.35;1.85;;;;;;;;;;4960381;28;20473;-72
2022/09/28 05:17:19;;;;;;;3.47;1.67;;;;;;;;;;4966014;28;20041;-74
2022/09/28 05:19:45;;;;;;;4.25;2.15;;;;;;;;;;4977742;28;20035;-71
2022/09/28 05:22:13;;;;;;;5.60;2.28;;;;;;;;;;4995565;28;20077;-73
2022/09/28 05:24:39;;;;;;;5.45;2.08;;;;;;;;;;4963993;28;20030;-73
2022/09/28 05:27:05;;;;;;;5.65;1.95;;;;;;;;;;4963650;28;20063;-73
2022/09/28 05:29:31;;;;;;;4.18;1.83;;;;;;;;;;4964616;28;20090;-73
2022/09/28 05:32:00;;;;;;;5.60;2.20;;;;;;;;;;4976995;28;20035;-74
2022/09/28 05:34:26;;;;;;;4.75;2.70;;;;;;;;;;4976114;28;20094;-74
2022/09/28 05:36:52;;;;;;;7.18;2.45;;;;;;;;;;4964326;28;20043;-73
2022/09/28 05:39:18;;;;;;;4.88;2.17;;;;;;;;;;4964099;28;20033;-73
2022/09/28 05:41:44;;;;;;;7.00;2.95;;;;;;;;;;4979249;28;20109;-72
2022/09/28 05:44:10;;;;;;;7.63;2.47;;;;;;;;;;4963298;28;20042;-73
2022/09/28 05:46:39;;;;;;;8.90;3.08;;;;;;;;;;4974797;28;20046;-74
2022/09/28 05:49:05;;;;;;;6.65;2.58;;;;;;;;;;4961363;28;20077;-73
2022/09/28 05:51:31;;;;;;;6.30;2.20;;;;;;;;;;4960764;28;20045;-74
2022/09/28 05:53:57;;;;;;;4.45;2.60;;;;;;;;;;4963174;28;20069;-73
2022/09/28 05:56:23;;;;;;;11.65;2.63;;;;;;;;;;4963426;28;20028;-73
2022/09/28 05:58:49;;;;;;;6.57;2.53;;;;;;;;;;4966512;28;20023;-73
2022/09/28 06:01:15;;;;;;;8.10;2.50;;;;;;;;;;4964194;28;20045;-73
2022/09/28 06:03:41;;;;;;;4.13;1.92;;;;;;;;;;4963443;28;20496;-73
2022/09/28 06:06:08;;;;;;;4.80;2.03;;;;;;;;;;4964645;28;20062;-73
2022/09/28 06:08:34;;;;;;;8.90;2.60;;;;;;;;;;4965422;28;20080;-72
2022/09/28 06:11:01;;;;;;;5.53;2.33;;;;;;;;;;4964507;28;20062;-73
2022/09/28 06:13:27;;;;;;;5.90;2.33;;;;;;;;;;4965899;28;20041;-73
2022/09/28 06:15:53;;;;;;;7.28;3.08;;;;;;;;;;4976792;28;20093;-73
2022/09/28 06:18:20;;;;;;;5.85;2.78;;;;;;;;;;4963707;28;20042;-73
2022/09/28 06:20:45;;;;;;;5.82;2.38;;;;;;;;;;4967771;28;20034;-73
2022/09/28 06:23:12;;;;;;;8.45;2.50;;;;;;;;;;4962063;28;20026;-73
2022/09/28 06:25:39;;;;;;;7.90;1.85;;;;;;;;;;4963938;28;20443;-73
2022/09/28 06:28:06;;;;;;;5.93;2.40;;;;;;;;;;4971011;28;20026;-73
2022/09/28 06:30:33;;;;;;;16.00;2.63;;;;;;;;;;4983345;28;20034;-73
2022/09/28 06:33:00;;;;;;;9.32;2.80;;;;;;;;;;4990733;28;20034;-74
2022/09/28 06:35:29;;;;;;;6.80;2.55;;;;;;;;;;4974601;28;20085;-73
2022/09/28 06:37:55;;;;;;;11.13;3.00;;;;;;;;;;4974139;28;20069;-72
2022/09/28 06:40:21;;;;;;;8.68;2.75;;;;;;;;;;4974833;28;20037;-72
2022/09/28 06:42:54;;;;;;;4.78;2.53;;;;;;;;;;4974133;28;20516;-73
2022/09/28 06:45:24;;;;;;;7.38;2.95;;;;;;;;;;4974543;28;20035;-74
2022/09/28 06:47:53;;;;;;;5.22;2.70;;;;;;;;;;4972911;28;20472;-73
2022/09/28 06:50:19;;;;;;;5.55;2.13;;;;;;;;;;4974821;28;20534;-73
2022/09/28 06:52:48;;;;;;;6.30;1.90;;;;;;;;;;4986823;28;20050;-74
2022/09/28 06:55:16;;;;;;;3.38;1.88;;;;;;;;;;4974189;28;20141;-73
2022/09/28 06:57:42;;;;;;;4.28;2.05;;;;;;;;;;4973414;28;20033;-73
2022/09/28 07:00:08;;;;;;;4.25;2.35;;;;;;;;;;4976443;28;20181;-73
2022/09/28 07:02:34;;;;;;;3.85;1.83;;;;;;;;;;4991845;28;20515;-73
2022/09/28 07:05:01;;;;;;;6.47;2.30;;;;;;;;;;4977281;28;20035;-73
2022/09/28 07:07:28;;;;;;;8.35;3.40;;;;;;;;;;4974009;28;20117;-73
2022/09/28 07:09:54;;;;;;;4.15;2.15;;;;;;;;;;4972786;28;20086;-73
2022/09/28 07:12:23;;;;;;;5.80;2.22;;;;;;;;;;4992684;28;20030;-73
2022/09/28 07:14:54;;;;;;;8.90;2.50;;;;;;;;;;4972353;28;20043;-73
2022/09/28 07:20:06;;;;;;;5.65;2.88;;;;;;;;;;4968263;28;19920;-73
2022/09/28 07:22:32;;;;;;;11.25;2.83;;;;;;;;;;4992485;28;20178;-73
2022/09/28 07:24:58;;;;;;;6.78;2.20;;;;;;;;;;4972676;28;20112;-73
2022/09/28 07:27:24;;;;;;;4.63;2.00;;;;;;;;;;4973630;28;20030;-73
2022/09/28 07:29:52;;;;;;;5.47;2.70;;;;;;;;;;4972572;28;20233;-73
2022/09/28 07:32:18;;;;;;;7.72;2.50;;;;;;;;;;4973659;28;20113;-73
2022/09/28 07:34:44;;;;;;;7.20;2.10;;;;;;;;;;4968364;28;20139;-73
2022/09/28 07:37:11;;;;;;;6.90;1.90;;;;;;;;;;4969090;28;20019;-73
2022/09/28 07:42:26;;;;;;;3.35;2.08;;;;;;;;;;4953988;29;20531;-72
2022/09/28 07:44:53;;;;;;;3.80;1.60;;;;;;;;;;4970038;28;20170;-73
2022/09/28 07:47:25;;;;;;;5.90;2.08;;;;;;;;;;4973362;28;20066;-73
2022/09/28 07:49:51;;;;;;;5.03;1.70;;;;;;;;;;4972939;28;20086;-73
2022/09/28 07:52:17;;;;;;;3.17;1.67;;;;;;;;;;4984988;28;20055;-73
2022/09/28 07:54:43;;;;;;;4.75;1.35;;;;;;;;;;4969831;28;20516;-73
2022/09/28 07:57:09;;;;;;;3.53;1.42;;;;;;;;;;4972154;28;20129;-73
2022/09/28 07:59:35;;;;;;;2.83;1.05;;;;;;;;;;4971249;28;20038;-73
2022/09/28 08:02:01;;;;;;;1.65;0.80;;;;;;;;;;4972692;28;20077;-73
2022/09/28 08:04:29;;;;;;;3.47;0.85;;;;;;;;;;4972871;28;20487;-73
2022/09/28 08:06:55;;;;;;;2.10;0.80;;;;;;;;;;4973527;28;20125;-73
2022/09/28 08:09:21;;;;;;;6.60;0.90;;;;;;;;;;4972462;28;20366;-73
2022/09/28 08:11:48;;;;;;;2.67;0.60;;;;;;;;;;4984963;28;20041;-73
2022/09/28 08:14:14;;;;;;;2.80;0.70;;;;;;;;;;4977831;28;20027;-73
2022/09/28 08:16:44;;;;;;;4.72;0.75;;;;;;;;;;4970886;28;20064;-72
2022/09/28 08:19:10;;;;;;;2.10;0.50;;;;;;;;;;4970809;28;20429;-73
2022/09/28 08:21:46;;;;;;;4.78;0.68;;;;;;;;;;4979739;28;20035;-73
2022/09/28 08:24:13;;;;;;;2.15;0.50;;;;;;;;;;4971368;28;20039;-72
2022/09/28 08:26:39;;;;;;;1.40;0.63;;;;;;;;;;4971283;28;20118;-73
2022/09/28 08:29:05;;;;;;;2.50;0.60;;;;;;;;;;4979844;28;20076;-72
2022/09/28 08:31:31;;;;;;;7.90;0.70;;;;;;;;;;4989424;28;20049;-73
2022/09/28 08:33:57;;;;;;;3.97;0.60;;;;;;;;;;4971565;28;20039;-73
2022/09/28 08:36:23;;;;;;;1.98;0.50;;;;;;;;;;4970820;28;20035;-73
2022/09/28 08:38:49;;;;;;;2.13;0.60;;;;;;;;;;4974549;28;20118;-73
2022/09/28 08:41:26;;;;;;;2.53;0.52;;;;;;;;;;4991372;28;20073;-73
2022/09/28 08:43:55;;;;;;;1.45;0.40;;;;;;;;;;4980366;28;20109;-72
2022/09/28 08:46:23;;;;;;;0.90;0.47;;;;;;;;;;4972103;28;20039;-73
2022/09/28 08:49:03;;;;;;;3.90;0.65;;;;;;;;;;4983522;28;20038;-73
2022/09/28 08:51:38;;;;;;;3.75;0.60;;;;;;;;;;4973910;28;20050;-72
2022/09/28 08:54:19;;;;;;;1.70;0.40;;;;;;;;;;4971883;28;20133;-73
2022/09/28 08:56:45;;;;;;;;;;;;;;;;;;4971328;28;20037;-73
2022/09/28 08:59:16;;;;;;;2.72;0.47;;;;;;;;;;4975482;28;19922;-73
2022/09/28 09:01:46;;;;;;;0.93;0.40;;;;;;;;;;4973966;28;20122;-72
2022/09/28 09:04:12;;;;;;;3.20;0.50;;;;;;;;;;4964329;28;20035;-72
2022/09/28 09:06:54;;;;;;;1.98;0.40;;;;;;;;;;4967178;28;20043;-72
2022/09/28 09:09:38;;;;;;;3.70;0.40;;;;;;;;;;4971858;28;20105;-72
2022/09/28 09:12:07;;;;;;;2.58;0.45;;;;;;;;;;4972224;28;20027;-73
2022/09/28 09:14:39;;;;;;;2.20;0.35;;;;;;;;;;4971829;28;20113;-72
2022/09/28 09:17:25;;;;;;;4.38;0.50;;;;;;;;;;4971494;28;20066;-72
2022/09/28 09:19:51;;;;;;;1.95;0.40;;;;;;;;;;4974183;28;20060;-73
2022/09/28 09:22:21;;;;;;;1.17;0.32;;;;;;;;;;4970327;28;20077;-72
2022/09/28 09:24:47;;;;;;;5.10;0.80;;;;;;;;;;4968541;28;20027;-72
2022/09/28 09:27:32;;;;;;;2.05;0.73;;;;;;;;;;4974961;28;20392;-72
2022/09/28 09:30:05;;;;;;;0.85;0.40;;;;;;;;;;4970697;28;20075;-72
2022/09/28 09:32:34;;;;;;;1.73;0.50;;;;;;;;;;4970893;28;20031;-72
2022/09/28 09:35:06;;;;;;;4.45;0.50;;;;;;;;;;4970135;28;20027;-72
2022/09/28 09:37:51;;;;;;;1.80;0.60;;;;;;;;;;4970725;28;20018;-72
2022/09/28 09:40:32;;;;;;;1.80;0.38;;;;;;;;;;4970487;28;20037;-72
2022/09/28 09:43:30;;;;;;;4.32;0.68;;;;;;;;;;4969372;28;20504;-72
2022/09/28 09:46:05;;;;;;;4.80;0.60;;;;;;;;;;4982797;28;20117;-72
2022/09/28 09:48:30;;;;;;;2.50;0.60;;;;;;;;;;4974882;28;20146;-72
2022/09/28 09:51:00;;;;;;;1.50;0.75;;;;;;;;;;4970284;28;20046;-72
2022/09/28 09:53:29;;;;;;;3.15;1.00;;;;;;;;;;4969980;28;20154;-72
2022/09/28 09:55:57;;;;;;;9.55;0.93;;;;;;;;;;4982041;28;20031;-72
2022/09/28 09:58:23;;;;;;;5.53;0.90;;;;;;;;;;4976060;28;20030;-71
2022/09/28 10:00:50;;;;;;;4.00;0.82;;;;;;;;;;4969961;28;20045;-71
2022/09/28 10:03:36;;;;;;;4.30;1.65;;;;;;;;;;4971183;28;20066;-72
2022/09/28 10:06:07;;;;;;;2.47;1.00;;;;;;;;;;4977234;28;20030;-71
2022/09/28 10:08:37;;;;;;;5.15;0.63;;;;;;;;;;4969229;28;20031;-71
2022/09/28 10:11:18;;;;;;;1.58;0.45;;;;;;;;;;4970432;28;20038;-71
2022/09/28 10:13:47;;;;;;;1.13;0.63;;;;;;;;;;4970157;28;20049;-71
2022/09/28 10:16:13;;;;;;;2.83;0.40;;;;;;;;;;4983726;28;20023;-71
2022/09/28 10:18:39;;;;;;;1.40;0.40;;;;;;;;;;4974142;28;20039;-71
2022/09/28 10:21:05;;;;;;;3.00;0.40;;;;;;;;;;4969801;28;20031;-71
2022/09/28 10:23:33;;;;;;;2.50;0.50;;;;;;;;;;4971429;28;20126;-71
2022/09/28 10:26:02;;;;;;;3.70;0.38;;;;;;;;;;4981031;28;20034;-71
2022/09/28 10:28:46;;;;;;;4.60;0.50;;;;;;;;;;4975349;28;20452;-70
2022/09/28 10:31:30;;;;;;;1.50;0.50;;;;;;;;;;4951515;28;20027;-70
2022/09/28 10:33:57;;;;;;;0.52;0.28;;;;;;;;;;4970331;28;20034;-69
2022/09/28 10:36:25;;;;;;;1.88;0.68;;;;;;;;;;4974269;28;20027;-69
2022/09/28 10:38:52;;;;;;;2.58;0.40;;;;;;;;;;4978758;28;20027;-70
2022/09/28 10:41:19;;;;;;;1.17;0.30;;;;;;;;;;4970777;28;20465;-70
2022/09/28 10:44:04;;;;;;;1.50;0.38;;;;;;;;;;4959480;28;20485;-70
2022/09/28 10:46:31;;;;;;;3.05;0.32;;;;;;;;;;4968697;28;20117;-70
2022/09/28 10:48:59;;;;;;;1.83;0.40;;;;;;;;;;4980702;28;20174;-69
2022/09/28 10:51:45;;;;;;;3.60;0.57;;;;;;;;;;4969570;28;20105;-69
2022/09/28 10:54:14;;;;;;;3.67;0.60;;;;;;;;;;4969292;28;20031;-69
2022/09/28 10:56:40;;;;;;;3.63;0.50;;;;;;;;;;4967465;28;20022;-70
2022/09/28 10:59:42;;;;;;;2.10;0.50;;;;;;;;;;4966999;28;20158;-69
2022/09/28 11:02:20;;;;;;;2.72;0.93;;;;;;;;;;4968809;28;20026;-69
2022/09/28 11:04:50;;;;;;;1.85;0.60;;;;;;;;;;4973952;28;20039;-69
2022/09/28 11:07:18;;;;;;;1.70;0.70;;;;;;;;;;4969743;28;20038;-69
2022/09/28 11:09:46;;;;;;;3.03;0.60;;;;;;;;;;4969723;28;20129;-69
2022/09/28 11:12:14;;;;;;;2.15;0.65;;;;;;;;;;4970429;28;20117;-69
2022/09/28 11:14:42;;;;;;;2.35;0.68;;;;;;;;;;4974373;28;20326;-70
2022/09/28 11:17:15;;;;;;;2.08;0.55;;;;;;;;;;4974545;28;20479;-69
2022/09/28 11:19:42;;;;;;;1.65;0.70;;;;;;;;;;4970736;28;20027;-69
2022/09/28 11:22:20;;;;;;;1.60;0.40;;;;;;;;;;4973903;28;20025;-68
2022/09/28 11:24:47;;;;;;;2.17;0.57;;;;;;;;;;4977071;28;20062;-70
2022/09/28 11:27:26;;;;;;;2.38;0.52;;;;;;;;;;4973472;28;20031;-70
2022/09/28 11:29:55;;;;;;;0.65;0.40;;;;;;;;;;4973185;28;20070;-68
2022/09/28 11:32:22;;;;;;;3.10;0.50;;;;;;;;;;4973704;28;20078;-68
2022/09/28 11:34:49;;;;;;;5.90;0.50;;;;;;;;;;4957499;28;20114;-68
2022/09/28 11:37:18;;;;;;;1.00;0.40;;;;;;;;;;4982627;28;20033;-70
2022/09/28 11:39:44;;;;;;;2.05;0.38;;;;;;;;;;4972294;28;20033;-70
2022/09/28 11:42:17;;;;;;;3.85;0.63;;;;;;;;;;4972644;28;20030;-69
2022/09/28 11:44:45;;;;;;;0.40;0.35;;;;;;;;;;4985994;28;20125;-69
2022/09/28 11:47:14;;;;;;;3.08;0.63;;;;;;;;;;4976816;28;20034;-69
2022/09/28 11:49:56;;;;;;;1.10;0.50;;;;;;;;;;4972826;28;20677;-69
2022/09/28 11:52:26;;;;;;;1.40;0.50;;;;;;;;;;4973545;28;20092;-69
2022/09/28 11:55:01;;;;;;;1.30;0.43;;;;;;;;;;4986668;28;20088;-69
2022/09/28 11:57:29;;;;;;;2.25;0.60;;;;;;;;;;4976467;28;20039;-69
2022/09/28 11:59:59;;;;;;;2.22;0.47;;;;;;;;;;4970556;28;20053;-69
2022/09/28 12:02:29;;;;;;;3.00;0.70;;;;;;;;;;4973809;28;20070;-70
2022/09/28 12:04:58;;;;;;;1.35;0.40;;;;;;;;;;4955113;28;20035;-70
2022/09/28 12:07:27;;;;;;;1.52;0.50;;;;;;;;;;4969143;28;20479;-69
2022/09/28 12:10:07;;;;;;;2.25;0.95;;;;;;;;;;4973547;28;20499;-70
2022/09/28 12:12:35;;;;;;;3.38;0.60;;;;;;;;;;4972019;28;20077;-70
2022/09/28 12:15:03;;;;;;;1.30;0.77;;;;;;;;;;4972535;28;20085;-70
2022/09/28 12:17:41;;;;;;;1.25;0.60;;;;;;;;;;4973494;28;20035;-70
2022/09/28 12:20:10;;;;;;;3.28;0.95;;;;;;;;;;4972344;28;20472;-69
2022/09/28 12:22:40;;;;;;;1.48;0.85;;;;;;;;;;4972499;28;20584;-70
2022/09/28 12:25:09;;;;;;;1.40;0.68;;;;;;;;;;4971766;28;20093;-70
2022/09/28 12:27:49;;;;;;;1.48;0.57;;;;;;;;;;4969109;28;20052;-69
2022/09/28 12:30:24;;;;;;;1.67;0.50;;;;;;;;;;4971700;28;20031;-70
2022/09/28 12:32:53;;;;;;;1.35;0.50;;;;;;;;;;4971885;28;20046;-69
2022/09/28 12:35:37;;;;;;;0.93;0.60;;;;;;;;;;4972402;28;20100;-70
2022/09/28 12:38:22;;;;;;;1.23;0.40;;;;;;;;;;4974281;28;20372;-69
2022/09/28 12:40:48;;;;;;;2.67;0.35;;;;;;;;;;4970686;28;20046;-69
2022/09/28 12:43:32;;;;;;;4.07;0.30;;;;;;;;;;4972197;28;20027;-69
2022/09/28 12:46:17;;;;;;;1.05;0.50;;;;;;;;;;4970822;28;20045;-69
2022/09/28 12:49:01;;;;;;;0.93;0.40;;;;;;;;;;4968048;28;20042;-69
2022/09/28 12:51:51;;;;;;;0.93;0.45;;;;;;;;;;4987618;28;20058;-69
2022/09/28 12:54:33;;;;;;;1.25;0.57;;;;;;;;;;4991041;28;20483;-69
2022/09/28 12:57:08;;;;;;;1.70;0.50;;;;;;;;;;4980527;28;20031;-71
2022/09/28 12:59:46;;;;;;;1.83;0.60;;;;;;;;;;4984238;28;20050;-69
2022/09/28 13:02:37;;;;;;;1.15;0.80;;;;;;;;;;4975045;28;20158;-69
2022/09/28 13:05:12;;;;;;;6.60;3.63;;;;;;;;;;4970678;28;20031;-69
2022/09/28 13:07:49;;;;;;;4.22;1.90;;;;;;;;;;4967939;28;20122;-69
2022/09/28 13:10:18;;;;;;;4.35;1.95;;;;;;;;;;4952457;28;20121;-69
2022/09/28 13:12:53;;;;;;;6.00;2.08;;;;;;;;;;4952664;28;20471;-69
2022/09/28 13:15:23;;;;;;;2.22;1.33;;;;;;;;;;4962645;28;20077;-68
2022/09/28 13:18:05;;;;;;;8.20;5.53;;;;;;;;;;4968706;28;20026;-69
2022/09/28 13:20:48;;;;;;;5.43;2.38;;;;;;;;;;4982725;28;20019;-68
2022/09/28 13:23:21;;;;;;;5.65;3.42;;;;;;;;;;4971165;28;20030;-69
2022/09/28 13:25:52;;;;;;;5.63;1.70;;;;;;;;;;4953660;28;20042;-68
2022/09/28 13:28:20;;;;;;;5.13;3.73;;;;;;;;;;4973055;28;20038;-69
2022/09/28 13:30:47;;;;;;;3.58;2.55;;;;;;;;;;4980594;28;20041;-69
2022/09/28 13:33:17;;;;;;;5.22;2.38;;;;;;;;;;4978651;28;20034;-70
2022/09/28 13:35:43;;;;;;;5.55;0.98;;;;;;;;;;4971156;28;20055;-71
2022/09/28 13:38:15;;;;;;;6.75;1.38;;;;;;;;;;4970934;28;20098;-71
2022/09/28 13:41:00;;;;;;;8.63;1.40;;;;;;;;;;4971699;28;20566;-71
2022/09/28 13:43:30;;;;;;;2.08;0.63;;;;;;;;;;4971032;28;20041;-70
2022/09/28 13:45:59;;;;;;;2.15;0.70;;;;;;;;;;4991170;28;20437;-70
2022/09/28 13:48:34;;;;;;;17.70;2.35;;;;;;;;;;4979026;28;20033;-73
2022/09/28 13:51:00;;;;;;;18.63;2.40;;;;;;;;;;4968753;28;20051;-72
2022/09/28 13:53:37;;;;;;;17.90;2.08;;;;;;;;;;4982504;28;20022;-73
2022/09/28 13:56:09;;;;;;;3.15;1.02;;;;;;;;;;4975952;28;20030;-73
2022/09/28 13:58:38;;;;;;;3.90;1.00;;;;;;;;;;4962301;28;20035;-73
2022/09/28 14:01:09;;;;;;;6.75;3.00;;;;;;;;;;4954426;28;20038;-73
2022/09/28 14:03:35;;;;;;;;;;;;;;;;;;4975997;28;20054;-73
2022/09/28 14:06:04;;;;;;;9.52;1.70;;;;;;;;;;4970123;28;19971;-72
2022/09/28 14:08:33;;;;;;;4.00;1.63;;;;;;;;;;4970583;28;20169;-72
2022/09/28 14:11:20;;;;;;;17.10;1.83;;;;;;;;;;4967825;28;20113;-73
2022/09/28 14:14:00;;;;;;;5.30;1.90;;;;;;;;;;4981876;28;20484;-74
2022/09/28 14:16:29;;;;;;;8.07;1.67;;;;;;;;;;4970013;28;20085;-73
2022/09/28 14:18:55;;;;;;;7.25;1.65;;;;;;;;;;4969859;28;20464;-74
2022/09/28 14:21:30;;;;;;;4.68;1.98;;;;;;;;;;4973718;28;20055;-73
2022/09/28 14:24:19;;;;;;;12.65;1.98;;;;;;;;;;4983757;28;20357;-73
2022/09/28 14:26:54;;;;;;;12.57;2.83;;;;;;;;;;4983220;28;20039;-73
2022/09/28 14:29:27;;;;;;;9.38;1.77;;;;;;;;;;4968691;28;20058;-73
2022/09/28 14:31:54;;;;;;;6.82;1.58;;;;;;;;;;4957233;28;20041;-73
2022/09/28 14:34:24;;;;;;;8.63;1.40;;;;;;;;;;4970039;28;20068;-74
2022/09/28 14:42:22;;;;;;;4.30;1.38;;;;;;;;;;4966426;28;20039;-74
2022/09/28 14:45:00;;;;;;;2.63;1.30;;;;;;;;;;4951307;28;20114;-73
2022/09/28 14:47:43;;;;;;;8.10;1.45;;;;;;;;;;4968697;28;20180;-73
2022/09/28 14:50:25;;;;;;;2.95;1.17;;;;;;;;;;4972327;28;20057;-73
2022/09/28 14:52:55;;;;;;;1.20;0.73;;;;;;;;;;4974174;28;20035;-74
2022/09/28 14:55:30;;;;;;;2.00;0.90;;;;;;;;;;4969105;28;20074;-73
2022/09/28 14:57:57;;;;;;;2.60;0.90;;;;;;;;;;4973556;28;20027;-73
2022/09/28 15:00:25;;;;;;;2.97;0.88;;;;;;;;;;4971859;28;20089;-73
2022/09/28 15:02:53;;;;;;;1.58;0.70;;;;;;;;;;4970925;28;20027;-72
2022/09/28 15:05:23;;;;;;;0.60;0.43;;;;;;;;;;4970404;28;20023;-71
2022/09/28 15:07:51;;;;;;;1.45;0.70;;;;;;;;;;4969027;28;20030;-72
2022/09/28 15:10:30;;;;;;;1.85;0.60;;;;;;;;;;4971061;28;20444;-72
2022/09/28 15:12:56;;;;;;;1.98;0.80;;;;;;;;;;4970389;28;20042;-72
2022/09/28 15:15:34;;;;;;;1.25;0.70;;;;;;;;;;4973525;28;20130;-73